Terminal Aerodrome Forecast
Issued by NWS

Home | Current Version | Previous Version | Text Only | Print | Product List | Glossary Off
Versions: 1 2 3 4 5 6 7 8 9 10 11 12 13 14 15 16 17 18 19

699
FTUS43 KABR 201734
TAFATY
TAF
KATY 201734Z 2018/2118 23010KT P6SM BKN200
     FM202100 28012G19KT P6SM BKN150
     FM202300 25012G19KT P6SM SCT110
     FM210200 29010KT P6SM SCT200
     FM210700 32015G23KT P6SM FEW090
     FM211200 33022G31KT P6SM SCT020=

USA.gov is the U.S. government's official web portal to all federal, state and local government web resources and services.